Tulse Hill, United Kingdom
Current Conditions -  °F | °C
As of 9:50 PM on Tuesday 25 Nov 2014 (Local Time) from EGLC Reporting Station
NA  
Wind Chill: 45°   Ceiling: NA
Heat Index: 48°   Visibility: 4mi
Dew Point: 46°   Wind: 7mph
Humidity: 93%   Direction: 70°ENE
Pressure: 30"   Gusts: NA
Location:  51.44°N, 0.11°W
Report Text: EGLC 252150Z AUTO 07006KT 6000 ///////// 09/08 Q1016
Loading
Personal Weather Stations






























Interactive Weather Map New forecast layout! Learn more

10-Day Weather Forecast

Advertisements
Track Severe Weather on mobile